GAVOZ EGHQ-EGHH
Flight info
| Callsign | GAVOZ |
|---|---|
| Flight time | 1h 37m |
| Altitude | 3500 |
| Route | EGHQ DCT EGHD DCT EGZY DCT EGTE DCT EGHH |
| Aircraft | P28A/L-S/L |
Departure
| Time | 2026-05-05 18:11 |
|---|---|
| Airport | Cornwall Airport Newquay (EGHQ) |
Arrival
| Time | 2026-05-05 19:49 |
|---|---|
| Airport | Bournemouth Airport (EGHH) |
| Time | Latitude | Longitude | Altitude | Speed | Heading |
|---|---|---|---|---|---|
| 2026-05-05 16:22 | 50.43735 | -4.99422 | 335 ft | 0 kts | 281° |
| 2026-05-05 18:03 | 50.43735 | -4.99423 | 335 ft | 2 kts | 283° |
| 2026-05-05 18:03 | 50.43765 | -4.99468 | 333 ft | 8 kts | 329° |
| 2026-05-05 18:03 | 50.43829 | -4.99512 | 332 ft | 12 kts | 347° |
| 2026-05-05 18:04 | 50.43889 | -4.99514 | 331 ft | 0 kts | 4° |
| 2026-05-05 18:04 | 50.43895 | -4.99514 | 331 ft | 6 kts | 4° |
| 2026-05-05 18:04 | 50.43905 | -4.99513 | 329 ft | 0 kts | 6° |
| 2026-05-05 18:08 | 50.43930 | -4.99509 | 329 ft | 14 kts | 5° |
| 2026-05-05 18:08 | 50.43943 | -4.99507 | 329 ft | 0 kts | 4° |
| 2026-05-05 18:10 | 50.43970 | -4.99504 | 328 ft | 17 kts | 3° |
| 2026-05-05 18:10 | 50.44080 | -4.99548 | 327 ft | 13 kts | 296° |
| 2026-05-05 18:11 | 50.44235 | -4.99938 | 329 ft | 69 kts | 302° |
| 2026-05-05 18:11 | 50.44405 | -5.00665 | 568 ft | 77 kts | 298° |
| 2026-05-05 18:11 | 50.44586 | -5.01472 | 830 ft | 76 kts | 300° |
| 2026-05-05 18:11 | 50.44749 | -5.02271 | 1046 ft | 73 kts | 307° |
| 2026-05-05 18:12 | 50.45137 | -5.02633 | 1280 ft | 72 kts | 358° |
| 2026-05-05 18:12 | 50.45650 | -5.02435 | 1534 ft | 75 kts | 11° |
| 2026-05-05 18:12 | 50.46130 | -5.02194 | 1858 ft | 75 kts | 21° |
| 2026-05-05 18:12 | 50.46515 | -5.01560 | 2058 ft | 84 kts | 50° |
| 2026-05-05 18:13 | 50.46746 | -5.00688 | 2239 ft | 91 kts | 65° |
| 2026-05-05 18:13 | 50.46809 | -4.99674 | 2437 ft | 97 kts | 82° |
| 2026-05-05 18:13 | 50.46738 | -4.98611 | 2686 ft | 93 kts | 85° |
| 2026-05-05 18:13 | 50.46697 | -4.97644 | 2942 ft | 93 kts | 89° |
| 2026-05-05 18:14 | 50.46543 | -4.96515 | 2911 ft | 114 kts | 93° |
| 2026-05-05 18:14 | 50.46374 | -4.95280 | 2915 ft | 116 kts | 93° |
| 2026-05-05 18:14 | 50.46212 | -4.94034 | 2908 ft | 118 kts | 93° |
| 2026-05-05 18:14 | 50.46047 | -4.92777 | 2907 ft | 117 kts | 94° |
| 2026-05-05 18:15 | 50.45888 | -4.91528 | 2911 ft | 117 kts | 93° |
| 2026-05-05 18:15 | 50.45728 | -4.90268 | 2908 ft | 118 kts | 93° |
| 2026-05-05 18:15 | 50.45568 | -4.89011 | 2910 ft | 117 kts | 93° |
| 2026-05-05 18:15 | 50.45401 | -4.87736 | 2906 ft | 121 kts | 93° |
| 2026-05-05 18:16 | 50.45231 | -4.86439 | 2907 ft | 120 kts | 94° |
| 2026-05-05 18:16 | 50.45062 | -4.85178 | 2907 ft | 117 kts | 94° |
| 2026-05-05 18:16 | 50.44902 | -4.83965 | 2898 ft | 110 kts | 93° |
| 2026-05-05 18:16 | 50.44800 | -4.83176 | 2895 ft | 109 kts | 93° |
| 2026-05-05 18:17 | 50.44584 | -4.81605 | 2902 ft | 114 kts | 94° |
| 2026-05-05 18:17 | 50.44414 | -4.80387 | 2900 ft | 114 kts | 94° |
| 2026-05-05 18:17 | 50.44248 | -4.79168 | 2897 ft | 114 kts | 93° |
| 2026-05-05 18:17 | 50.44087 | -4.77969 | 2895 ft | 112 kts | 94° |
| 2026-05-05 18:18 | 50.43921 | -4.76761 | 2899 ft | 111 kts | 94° |
| 2026-05-05 18:18 | 50.43763 | -4.75585 | 2897 ft | 109 kts | 92° |
| 2026-05-05 18:18 | 50.43598 | -4.74411 | 2894 ft | 111 kts | 95° |
| 2026-05-05 18:18 | 50.43433 | -4.73223 | 2895 ft | 111 kts | 92° |
| 2026-05-05 18:19 | 50.43273 | -4.72043 | 2886 ft | 111 kts | 94° |
| 2026-05-05 18:19 | 50.43109 | -4.70884 | 2888 ft | 109 kts | 94° |
| 2026-05-05 18:19 | 50.43036 | -4.69728 | 2886 ft | 106 kts | 84° |
| 2026-05-05 18:19 | 50.42983 | -4.68574 | 2883 ft | 105 kts | 84° |
| 2026-05-05 18:20 | 50.42967 | -4.67435 | 2880 ft | 104 kts | 82° |
| 2026-05-05 18:20 | 50.42947 | -4.66290 | 2890 ft | 107 kts | 83° |
| 2026-05-05 18:20 | 50.42945 | -4.65119 | 2890 ft | 109 kts | 83° |
| 2026-05-05 18:20 | 50.42932 | -4.63942 | 2882 ft | 107 kts | 83° |
| 2026-05-05 18:21 | 50.42956 | -4.62805 | 2883 ft | 104 kts | 77° |
| 2026-05-05 18:21 | 50.42995 | -4.61656 | 2879 ft | 105 kts | 77° |
| 2026-05-05 18:21 | 50.43034 | -4.60514 | 2884 ft | 107 kts | 79° |
| 2026-05-05 18:21 | 50.43081 | -4.59353 | 2891 ft | 109 kts | 78° |
| 2026-05-05 18:22 | 50.43113 | -4.58162 | 2886 ft | 108 kts | 79° |
| 2026-05-05 18:22 | 50.43137 | -4.57018 | 2880 ft | 102 kts | 79° |
| 2026-05-05 18:22 | 50.43150 | -4.55888 | 2878 ft | 106 kts | 80° |
| 2026-05-05 18:22 | 50.43174 | -4.54738 | 2879 ft | 105 kts | 79° |
| 2026-05-05 18:23 | 50.43191 | -4.53611 | 2871 ft | 101 kts | 79° |
| 2026-05-05 18:23 | 50.43209 | -4.52535 | 2867 ft | 102 kts | 80° |
| 2026-05-05 18:23 | 50.43226 | -4.51379 | 2863 ft | 103 kts | 79° |
| 2026-05-05 18:23 | 50.43228 | -4.50272 | 2867 ft | 101 kts | 83° |
| 2026-05-05 18:24 | 50.43174 | -4.49191 | 2871 ft | 99 kts | 84° |
| 2026-05-05 18:24 | 50.43152 | -4.48099 | 2864 ft | 100 kts | 80° |
| 2026-05-05 18:24 | 50.43114 | -4.47003 | 2861 ft | 104 kts | 88° |
| 2026-05-05 18:24 | 50.43076 | -4.45875 | 2864 ft | 103 kts | 83° |
| 2026-05-05 18:25 | 50.43061 | -4.44764 | 2860 ft | 101 kts | 82° |
| 2026-05-05 18:25 | 50.43057 | -4.44394 | 2863 ft | 100 kts | 82° |
| 2026-05-05 18:25 | 50.43037 | -4.42503 | 2861 ft | 105 kts | 82° |
| 2026-05-05 18:25 | 50.43023 | -4.41369 | 2870 ft | 104 kts | 83° |
| 2026-05-05 18:26 | 50.43006 | -4.40232 | 2863 ft | 103 kts | 82° |
| 2026-05-05 18:26 | 50.43000 | -4.39113 | 2862 ft | 102 kts | 83° |
| 2026-05-05 18:26 | 50.42988 | -4.37985 | 2872 ft | 105 kts | 82° |
| 2026-05-05 18:26 | 50.42977 | -4.36851 | 2866 ft | 103 kts | 83° |
| 2026-05-05 18:27 | 50.42961 | -4.35725 | 2865 ft | 103 kts | 83° |
| 2026-05-05 18:27 | 50.42947 | -4.34592 | 2865 ft | 103 kts | 83° |
| 2026-05-05 18:27 | 50.42947 | -4.33448 | 2871 ft | 105 kts | 82° |
| 2026-05-05 18:27 | 50.42929 | -4.32326 | 2863 ft | 101 kts | 84° |
| 2026-05-05 18:28 | 50.42865 | -4.30057 | 2863 ft | 106 kts | 84° |
| 2026-05-05 18:28 | 50.42837 | -4.28899 | 2873 ft | 106 kts | 83° |
| 2026-05-05 18:28 | 50.42804 | -4.27746 | 2863 ft | 104 kts | 84° |
| 2026-05-05 18:29 | 50.42771 | -4.26624 | 2859 ft | 102 kts | 85° |
| 2026-05-05 18:29 | 50.42745 | -4.25496 | 2864 ft | 104 kts | 83° |
| 2026-05-05 18:29 | 50.42722 | -4.24350 | 2864 ft | 106 kts | 84° |
| 2026-05-05 18:29 | 50.42698 | -4.23194 | 2863 ft | 106 kts | 84° |
| 2026-05-05 18:30 | 50.42671 | -4.22036 | 2868 ft | 106 kts | 84° |
| 2026-05-05 18:30 | 50.42647 | -4.20878 | 2863 ft | 106 kts | 83° |
| 2026-05-05 18:30 | 50.42620 | -4.19730 | 2860 ft | 105 kts | 84° |
| 2026-05-05 18:30 | 50.42593 | -4.18594 | 2859 ft | 104 kts | 84° |
| 2026-05-05 18:31 | 50.42567 | -4.17462 | 2856 ft | 103 kts | 84° |
| 2026-05-05 18:31 | 50.42548 | -4.16343 | 2860 ft | 103 kts | 83° |
| 2026-05-05 18:31 | 50.42524 | -4.15197 | 2862 ft | 107 kts | 84° |
| 2026-05-05 18:31 | 50.42497 | -4.14029 | 2862 ft | 107 kts | 84° |
| 2026-05-05 18:32 | 50.42474 | -4.12855 | 2866 ft | 109 kts | 83° |
| 2026-05-05 18:32 | 50.42460 | -4.12116 | 2865 ft | 109 kts | 84° |
| 2026-05-05 18:32 | 50.42439 | -4.10998 | 2865 ft | 108 kts | 84° |
| 2026-05-05 18:32 | 50.42419 | -4.09826 | 2868 ft | 108 kts | 83° |
| 2026-05-05 18:33 | 50.42174 | -4.08676 | 2844 ft | 118 kts | 118° |
| 2026-05-05 18:33 | 50.41538 | -4.07844 | 2844 ft | 120 kts | 142° |
| 2026-05-05 18:33 | 50.40874 | -4.07089 | 2844 ft | 117 kts | 138° |
| 2026-05-05 18:33 | 50.40213 | -4.06335 | 2848 ft | 119 kts | 139° |
| 2026-05-05 18:34 | 50.39549 | -4.05581 | 2846 ft | 115 kts | 139° |
| 2026-05-05 18:34 | 50.38889 | -4.04831 | 2688 ft | 120 kts | 139° |
| 2026-05-05 18:34 | 50.38221 | -4.04071 | 2591 ft | 117 kts | 139° |
| 2026-05-05 18:34 | 50.37554 | -4.03310 | 2453 ft | 118 kts | 139° |
| 2026-05-05 18:35 | 50.36913 | -4.02545 | 2301 ft | 118 kts | 135° |
| 2026-05-05 18:35 | 50.36279 | -4.01732 | 2166 ft | 117 kts | 136° |
| 2026-05-05 18:35 | 50.35659 | -4.00952 | 2109 ft | 110 kts | 136° |
| 2026-05-05 18:35 | 50.35082 | -4.00222 | 2111 ft | 103 kts | 135° |
| 2026-05-05 18:36 | 50.34530 | -3.99541 | 2113 ft | 101 kts | 135° |
| 2026-05-05 18:36 | 50.33971 | -3.98856 | 2111 ft | 102 kts | 136° |
| 2026-05-05 18:36 | 50.33406 | -3.98168 | 2110 ft | 102 kts | 136° |
| 2026-05-05 18:36 | 50.32850 | -3.97485 | 2111 ft | 101 kts | 135° |
| 2026-05-05 18:37 | 50.32304 | -3.96805 | 2113 ft | 101 kts | 136° |
| 2026-05-05 18:37 | 50.31753 | -3.96117 | 2117 ft | 101 kts | 135° |
| 2026-05-05 18:37 | 50.31204 | -3.95432 | 2117 ft | 100 kts | 135° |
| 2026-05-05 18:37 | 50.30664 | -3.94759 | 2115 ft | 100 kts | 136° |
| 2026-05-05 18:38 | 50.30114 | -3.94078 | 2062 ft | 103 kts | 135° |
| 2026-05-05 18:38 | 50.29549 | -3.93376 | 1997 ft | 103 kts | 136° |
| 2026-05-05 18:38 | 50.28976 | -3.92659 | 1932 ft | 105 kts | 136° |
| 2026-05-05 18:38 | 50.28414 | -3.91962 | 1900 ft | 104 kts | 136° |
| 2026-05-05 18:39 | 50.27848 | -3.91250 | 1871 ft | 103 kts | 136° |
| 2026-05-05 18:39 | 50.27286 | -3.90536 | 1779 ft | 108 kts | 136° |
| 2026-05-05 18:39 | 50.26705 | -3.89793 | 1715 ft | 107 kts | 135° |
| 2026-05-05 18:39 | 50.26150 | -3.89030 | 1667 ft | 106 kts | 134° |
| 2026-05-05 18:40 | 50.25587 | -3.88263 | 1576 ft | 108 kts | 134° |
| 2026-05-05 18:40 | 50.25042 | -3.87473 | 1523 ft | 105 kts | 129° |
| 2026-05-05 18:40 | 50.24552 | -3.86653 | 1493 ft | 101 kts | 125° |
| 2026-05-05 18:40 | 50.24118 | -3.85812 | 1503 ft | 100 kts | 123° |
| 2026-05-05 18:41 | 50.23634 | -3.85007 | 1478 ft | 104 kts | 131° |
| 2026-05-05 18:41 | 50.23099 | -3.84232 | 1410 ft | 104 kts | 133° |
| 2026-05-05 18:41 | 50.22580 | -3.83414 | 1311 ft | 105 kts | 126° |
| 2026-05-05 18:41 | 50.22135 | -3.82572 | 1286 ft | 102 kts | 123° |
| 2026-05-05 18:42 | 50.21735 | -3.81708 | 1254 ft | 96 kts | 120° |
| 2026-05-05 18:42 | 50.21353 | -3.80857 | 1150 ft | 101 kts | 127° |
| 2026-05-05 18:42 | 50.20858 | -3.80023 | 1020 ft | 103 kts | 123° |
| 2026-05-05 18:42 | 50.20480 | -3.79188 | 1113 ft | 92 kts | 121° |
| 2026-05-05 18:43 | 50.19998 | -3.78506 | 1144 ft | 97 kts | 134° |
| 2026-05-05 18:43 | 50.19487 | -3.77756 | 1156 ft | 98 kts | 122° |
| 2026-05-05 18:43 | 50.19310 | -3.76884 | 1075 ft | 76 kts | 77° |
| 2026-05-05 18:43 | 50.19627 | -3.76317 | 864 ft | 69 kts | 12° |
| 2026-05-05 18:44 | 50.20058 | -3.76629 | 597 ft | 74 kts | 314° |
| 2026-05-05 18:44 | 50.20405 | -3.77104 | 520 ft | 65 kts | 322° |
| 2026-05-05 18:44 | 50.20720 | -3.77603 | 487 ft | 63 kts | 321° |
| 2026-05-05 18:44 | 50.21039 | -3.78018 | 498 ft | 58 kts | 330° |
| 2026-05-05 18:45 | 50.21391 | -3.78344 | 515 ft | 59 kts | 332° |
| 2026-05-05 18:45 | 50.21698 | -3.78699 | 444 ft | 47 kts | 322° |
| 2026-05-05 18:45 | 50.21909 | -3.79168 | 468 ft | 56 kts | 326° |
| 2026-05-05 18:45 | 50.21746 | -3.79565 | 578 ft | 68 kts | 176° |
| 2026-05-05 18:46 | 50.21351 | -3.79082 | 654 ft | 84 kts | 131° |
| 2026-05-05 18:46 | 50.20788 | -3.78904 | 577 ft | 86 kts | 211° |
| 2026-05-05 18:46 | 50.20484 | -3.79614 | 555 ft | 82 kts | 267° |
| 2026-05-05 18:46 | 50.20164 | -3.80241 | 612 ft | 87 kts | 212° |
| 2026-05-05 18:47 | 50.19600 | -3.80490 | 736 ft | 87 kts | 179° |
| 2026-05-05 18:47 | 50.19058 | -3.80117 | 814 ft | 86 kts | 147° |
| 2026-05-05 18:47 | 50.18687 | -3.79488 | 872 ft | 78 kts | 95° |
| 2026-05-05 18:47 | 50.18972 | -3.78978 | 821 ft | 74 kts | 14° |
| 2026-05-05 18:48 | 50.19383 | -3.78547 | 884 ft | 62 kts | 36° |
| 2026-05-05 18:48 | 50.19768 | -3.78181 | 937 ft | 66 kts | 23° |
| 2026-05-05 18:48 | 50.20184 | -3.77894 | 1013 ft | 65 kts | 17° |
| 2026-05-05 18:48 | 50.20618 | -3.77699 | 1087 ft | 62 kts | 11° |
| 2026-05-05 18:49 | 50.21046 | -3.77596 | 1111 ft | 62 kts | 8° |
| 2026-05-05 18:49 | 50.21450 | -3.77591 | 1138 ft | 57 kts | 356° |
| 2026-05-05 18:49 | 50.21817 | -3.77825 | 1097 ft | 61 kts | 334° |
| 2026-05-05 18:49 | 50.22079 | -3.78348 | 987 ft | 63 kts | 306° |
| 2026-05-05 18:50 | 50.22219 | -3.79032 | 767 ft | 65 kts | 296° |
| 2026-05-05 18:50 | 50.22313 | -3.79676 | 532 ft | 57 kts | 291° |
| 2026-05-05 18:50 | 50.22388 | -3.80232 | 439 ft | 56 kts | 295° |
| 2026-05-05 18:50 | 50.22492 | -3.80957 | 608 ft | 75 kts | 285° |
| 2026-05-05 18:51 | 50.22446 | -3.81753 | 891 ft | 82 kts | 262° |
| 2026-05-05 18:51 | 50.22060 | -3.82438 | 1227 ft | 89 kts | 204° |
| 2026-05-05 18:51 | 50.21520 | -3.82056 | 1463 ft | 84 kts | 109° |
| 2026-05-05 18:51 | 50.21283 | -3.81298 | 1785 ft | 75 kts | 98° |
| 2026-05-05 18:52 | 50.21415 | -3.80598 | 1998 ft | 67 kts | 38° |
| 2026-05-05 18:52 | 50.21810 | -3.80297 | 2208 ft | 72 kts | 25° |
| 2026-05-05 18:52 | 50.22204 | -3.79692 | 2351 ft | 84 kts | 43° |
| 2026-05-05 18:52 | 50.22626 | -3.79035 | 2568 ft | 87 kts | 40° |
| 2026-05-05 18:53 | 50.23040 | -3.78330 | 2798 ft | 88 kts | 45° |
| 2026-05-05 18:53 | 50.23460 | -3.77623 | 2922 ft | 94 kts | 43° |
| 2026-05-05 18:53 | 50.23928 | -3.76841 | 2915 ft | 102 kts | 44° |
| 2026-05-05 18:53 | 50.24416 | -3.76022 | 2914 ft | 104 kts | 44° |
| 2026-05-05 18:54 | 50.24917 | -3.75192 | 2909 ft | 106 kts | 45° |
| 2026-05-05 18:54 | 50.25427 | -3.74353 | 2906 ft | 107 kts | 44° |
| 2026-05-05 18:54 | 50.25937 | -3.73510 | 2906 ft | 107 kts | 44° |
| 2026-05-05 18:54 | 50.26449 | -3.72670 | 2906 ft | 107 kts | 44° |
| 2026-05-05 18:55 | 50.26957 | -3.71825 | 2906 ft | 109 kts | 44° |
| 2026-05-05 18:55 | 50.27486 | -3.70963 | 2906 ft | 107 kts | 44° |
| 2026-05-05 18:55 | 50.27993 | -3.70141 | 2906 ft | 106 kts | 44° |
| 2026-05-05 18:55 | 50.28499 | -3.69294 | 2907 ft | 107 kts | 44° |
| 2026-05-05 18:56 | 50.29014 | -3.68451 | 2908 ft | 108 kts | 44° |
| 2026-05-05 18:56 | 50.29519 | -3.67604 | 2907 ft | 106 kts | 44° |
| 2026-05-05 18:56 | 50.30029 | -3.66759 | 2900 ft | 108 kts | 44° |
| 2026-05-05 18:56 | 50.30537 | -3.65901 | 2901 ft | 107 kts | 44° |
| 2026-05-05 18:57 | 50.31043 | -3.65056 | 2898 ft | 107 kts | 44° |
| 2026-05-05 18:57 | 50.31552 | -3.64214 | 2900 ft | 106 kts | 44° |
| 2026-05-05 18:57 | 50.32056 | -3.63372 | 2899 ft | 106 kts | 44° |
| 2026-05-05 18:57 | 50.32558 | -3.62523 | 2907 ft | 107 kts | 44° |
| 2026-05-05 18:58 | 50.33070 | -3.61680 | 2902 ft | 106 kts | 44° |
| 2026-05-05 18:58 | 50.33569 | -3.60841 | 2894 ft | 105 kts | 44° |
| 2026-05-05 18:58 | 50.34064 | -3.60006 | 2895 ft | 105 kts | 44° |
| 2026-05-05 18:58 | 50.34556 | -3.59192 | 2952 ft | 102 kts | 44° |
| 2026-05-05 18:59 | 50.35049 | -3.58352 | 2954 ft | 107 kts | 44° |
| 2026-05-05 18:59 | 50.35558 | -3.57506 | 2958 ft | 107 kts | 44° |
| 2026-05-05 18:59 | 50.36058 | -3.56667 | 2961 ft | 105 kts | 44° |
| 2026-05-05 18:59 | 50.36557 | -3.55841 | 2955 ft | 102 kts | 44° |
| 2026-05-05 19:00 | 50.37044 | -3.55030 | 2966 ft | 104 kts | 44° |
| 2026-05-05 19:00 | 50.37545 | -3.54188 | 2970 ft | 106 kts | 45° |
| 2026-05-05 19:00 | 50.38072 | -3.53369 | 2967 ft | 107 kts | 35° |
| 2026-05-05 19:00 | 50.38744 | -3.52850 | 2958 ft | 108 kts | 24° |
| 2026-05-05 19:01 | 50.39417 | -3.52331 | 2958 ft | 108 kts | 25° |
| 2026-05-05 19:01 | 50.40091 | -3.51814 | 2958 ft | 108 kts | 25° |
| 2026-05-05 19:01 | 50.40762 | -3.51293 | 2958 ft | 107 kts | 25° |
| 2026-05-05 19:01 | 50.41439 | -3.50834 | 2957 ft | 106 kts | 19° |
| 2026-05-05 19:02 | 50.42128 | -3.50423 | 2958 ft | 106 kts | 20° |
| 2026-05-05 19:02 | 50.42813 | -3.50015 | 2959 ft | 105 kts | 20° |
| 2026-05-05 19:02 | 50.43501 | -3.49640 | 2954 ft | 105 kts | 18° |
| 2026-05-05 19:02 | 50.44194 | -3.49274 | 2957 ft | 105 kts | 18° |
| 2026-05-05 19:03 | 50.44886 | -3.48912 | 2956 ft | 105 kts | 18° |
| 2026-05-05 19:03 | 50.45576 | -3.48549 | 2956 ft | 105 kts | 18° |
| 2026-05-05 19:03 | 50.46270 | -3.48186 | 2958 ft | 105 kts | 18° |
| 2026-05-05 19:03 | 50.46982 | -3.47928 | 2958 ft | 105 kts | 10° |
| 2026-05-05 19:04 | 50.47703 | -3.47717 | 2958 ft | 105 kts | 11° |
| 2026-05-05 19:04 | 50.48424 | -3.47504 | 2961 ft | 106 kts | 11° |
| 2026-05-05 19:04 | 50.49139 | -3.47281 | 2961 ft | 106 kts | 11° |
| 2026-05-05 19:04 | 50.49869 | -3.47069 | 2960 ft | 106 kts | 10° |
| 2026-05-05 19:05 | 50.50596 | -3.46854 | 2959 ft | 106 kts | 11° |
| 2026-05-05 19:05 | 50.51318 | -3.46634 | 2959 ft | 106 kts | 11° |
| 2026-05-05 19:05 | 50.52040 | -3.46432 | 2959 ft | 105 kts | 11° |
| 2026-05-05 19:05 | 50.52761 | -3.46226 | 2959 ft | 105 kts | 11° |
| 2026-05-05 19:06 | 50.53474 | -3.46029 | 2958 ft | 104 kts | 11° |
| 2026-05-05 19:06 | 50.54184 | -3.45835 | 2960 ft | 104 kts | 11° |
| 2026-05-05 19:06 | 50.54902 | -3.45640 | 2957 ft | 105 kts | 11° |
| 2026-05-05 19:06 | 50.55615 | -3.45437 | 2959 ft | 104 kts | 11° |
| 2026-05-05 19:07 | 50.56330 | -3.45229 | 2960 ft | 105 kts | 11° |
| 2026-05-05 19:07 | 50.57049 | -3.45023 | 2959 ft | 105 kts | 11° |
| 2026-05-05 19:07 | 50.57764 | -3.44827 | 2957 ft | 104 kts | 10° |
| 2026-05-05 19:07 | 50.58435 | -3.44423 | 2960 ft | 105 kts | 36° |
| 2026-05-05 19:08 | 50.58918 | -3.43560 | 2962 ft | 105 kts | 47° |
| 2026-05-05 19:08 | 50.59414 | -3.42714 | 2954 ft | 105 kts | 45° |
| 2026-05-05 19:08 | 50.59899 | -3.41850 | 2961 ft | 105 kts | 46° |
| 2026-05-05 19:08 | 50.60391 | -3.40995 | 2953 ft | 105 kts | 46° |
| 2026-05-05 19:09 | 50.60883 | -3.40142 | 2962 ft | 105 kts | 46° |
| 2026-05-05 19:09 | 50.61301 | -3.39194 | 2961 ft | 107 kts | 60° |
| 2026-05-05 19:09 | 50.61665 | -3.38166 | 2965 ft | 108 kts | 58° |
| 2026-05-05 19:09 | 50.62038 | -3.37136 | 2963 ft | 108 kts | 58° |
| 2026-05-05 19:10 | 50.62414 | -3.36090 | 2967 ft | 110 kts | 58° |
| 2026-05-05 19:10 | 50.62787 | -3.35064 | 2965 ft | 109 kts | 58° |
| 2026-05-05 19:10 | 50.63166 | -3.34017 | 2969 ft | 111 kts | 58° |
| 2026-05-05 19:10 | 50.63542 | -3.32970 | 2968 ft | 109 kts | 58° |
| 2026-05-05 19:11 | 50.63916 | -3.31927 | 2967 ft | 110 kts | 58° |
| 2026-05-05 19:11 | 50.64288 | -3.30878 | 2961 ft | 110 kts | 58° |
| 2026-05-05 19:11 | 50.64661 | -3.29832 | 2957 ft | 109 kts | 58° |
| 2026-05-05 19:11 | 50.65033 | -3.28788 | 2966 ft | 110 kts | 58° |
| 2026-05-05 19:12 | 50.65405 | -3.27734 | 2961 ft | 109 kts | 58° |
| 2026-05-05 19:12 | 50.65773 | -3.26690 | 2969 ft | 109 kts | 58° |
| 2026-05-05 19:12 | 50.66146 | -3.25662 | 2964 ft | 108 kts | 54° |
| 2026-05-05 19:12 | 50.66580 | -3.24711 | 2966 ft | 107 kts | 52° |
| 2026-05-05 19:13 | 50.67012 | -3.23757 | 2963 ft | 107 kts | 52° |
| 2026-05-05 19:13 | 50.67442 | -3.22802 | 2967 ft | 107 kts | 51° |
| 2026-05-05 19:13 | 50.67872 | -3.21846 | 2963 ft | 107 kts | 52° |
| 2026-05-05 19:13 | 50.68303 | -3.20893 | 2970 ft | 107 kts | 53° |
| 2026-05-05 19:14 | 50.68717 | -3.19976 | 2972 ft | 102 kts | 51° |
| 2026-05-05 19:14 | 50.69133 | -3.19044 | 2974 ft | 106 kts | 52° |
| 2026-05-05 19:14 | 50.69554 | -3.18106 | 2970 ft | 103 kts | 52° |
| 2026-05-05 19:14 | 50.69971 | -3.17175 | 2975 ft | 105 kts | 52° |
| 2026-05-05 19:15 | 50.70403 | -3.16223 | 2975 ft | 108 kts | 52° |
| 2026-05-05 19:15 | 50.70835 | -3.15252 | 2981 ft | 109 kts | 52° |
| 2026-05-05 19:15 | 50.71271 | -3.14281 | 2975 ft | 107 kts | 52° |
| 2026-05-05 19:15 | 50.71702 | -3.13315 | 2975 ft | 108 kts | 52° |
| 2026-05-05 19:16 | 50.72126 | -3.12345 | 2978 ft | 107 kts | 52° |
| 2026-05-05 19:16 | 50.72553 | -3.11383 | 2969 ft | 107 kts | 52° |
| 2026-05-05 19:16 | 50.72978 | -3.10422 | 2979 ft | 107 kts | 52° |
| 2026-05-05 19:16 | 50.73400 | -3.09459 | 2975 ft | 107 kts | 51° |
| 2026-05-05 19:17 | 50.73822 | -3.08492 | 2979 ft | 107 kts | 52° |
| 2026-05-05 19:17 | 50.74249 | -3.07526 | 2980 ft | 108 kts | 52° |
| 2026-05-05 19:17 | 50.74675 | -3.06562 | 2979 ft | 107 kts | 52° |
| 2026-05-05 19:17 | 50.75096 | -3.05602 | 2978 ft | 106 kts | 53° |
| 2026-05-05 19:18 | 50.75517 | -3.04637 | 2978 ft | 107 kts | 52° |
| 2026-05-05 19:18 | 50.75941 | -3.03668 | 2977 ft | 108 kts | 52° |
| 2026-05-05 19:18 | 50.76354 | -3.02671 | 2977 ft | 110 kts | 59° |
| 2026-05-05 19:18 | 50.76449 | -3.01475 | 2937 ft | 112 kts | 93° |
| 2026-05-05 19:19 | 50.76308 | -3.00256 | 2839 ft | 112 kts | 92° |
| 2026-05-05 19:19 | 50.76201 | -2.99030 | 2766 ft | 114 kts | 93° |
| 2026-05-05 19:19 | 50.76078 | -2.97812 | 2699 ft | 112 kts | 92° |
| 2026-05-05 19:19 | 50.75959 | -2.96614 | 2634 ft | 110 kts | 93° |
| 2026-05-05 19:20 | 50.75833 | -2.95413 | 2540 ft | 113 kts | 93° |
| 2026-05-05 19:20 | 50.75706 | -2.94208 | 2543 ft | 110 kts | 94° |
| 2026-05-05 19:20 | 50.75578 | -2.93030 | 2552 ft | 108 kts | 91° |
| 2026-05-05 19:20 | 50.75472 | -2.91858 | 2547 ft | 107 kts | 91° |
| 2026-05-05 19:21 | 50.75362 | -2.90723 | 2542 ft | 104 kts | 90° |
| 2026-05-05 19:21 | 50.75245 | -2.89598 | 2542 ft | 103 kts | 91° |
| 2026-05-05 19:21 | 50.75177 | -2.88471 | 2542 ft | 103 kts | 88° |
| 2026-05-05 19:21 | 50.75107 | -2.87329 | 2473 ft | 108 kts | 88° |
| 2026-05-05 19:22 | 50.75061 | -2.86542 | 2492 ft | 106 kts | 88° |
| 2026-05-05 19:22 | 50.74991 | -2.85388 | 2487 ft | 107 kts | 88° |
| 2026-05-05 19:22 | 50.74925 | -2.84196 | 2492 ft | 113 kts | 88° |
| 2026-05-05 19:22 | 50.74854 | -2.82945 | 2493 ft | 114 kts | 88° |
| 2026-05-05 19:23 | 50.74788 | -2.81700 | 2497 ft | 113 kts | 88° |
| 2026-05-05 19:23 | 50.74719 | -2.80475 | 2494 ft | 111 kts | 88° |
| 2026-05-05 19:23 | 50.74660 | -2.79252 | 2492 ft | 112 kts | 88° |
| 2026-05-05 19:23 | 50.74601 | -2.78016 | 2493 ft | 114 kts | 88° |
| 2026-05-05 19:24 | 50.74541 | -2.76765 | 2494 ft | 114 kts | 88° |
| 2026-05-05 19:24 | 50.74480 | -2.75510 | 2494 ft | 115 kts | 88° |
| 2026-05-05 19:24 | 50.74413 | -2.74248 | 2497 ft | 116 kts | 88° |
| 2026-05-05 19:24 | 50.74342 | -2.72984 | 2495 ft | 115 kts | 88° |
| 2026-05-05 19:25 | 50.74273 | -2.71718 | 2497 ft | 116 kts | 88° |
| 2026-05-05 19:25 | 50.74221 | -2.70453 | 2494 ft | 115 kts | 88° |
| 2026-05-05 19:25 | 50.74150 | -2.69201 | 2491 ft | 114 kts | 89° |
| 2026-05-05 19:25 | 50.74039 | -2.67963 | 2489 ft | 114 kts | 91° |
| 2026-05-05 19:26 | 50.73926 | -2.66715 | 2496 ft | 115 kts | 91° |
| 2026-05-05 19:26 | 50.73812 | -2.65461 | 2500 ft | 116 kts | 91° |
| 2026-05-05 19:26 | 50.73708 | -2.64203 | 2492 ft | 115 kts | 91° |
| 2026-05-05 19:26 | 50.73596 | -2.62953 | 2495 ft | 115 kts | 92° |
| 2026-05-05 19:27 | 50.73432 | -2.61700 | 2496 ft | 118 kts | 97° |
| 2026-05-05 19:27 | 50.73243 | -2.60454 | 2497 ft | 116 kts | 96° |
| 2026-05-05 19:27 | 50.73053 | -2.59239 | 2489 ft | 111 kts | 96° |
| 2026-05-05 19:27 | 50.72876 | -2.58096 | 2488 ft | 106 kts | 96° |
| 2026-05-05 19:28 | 50.72693 | -2.56953 | 2486 ft | 108 kts | 96° |
| 2026-05-05 19:28 | 50.72514 | -2.55786 | 2481 ft | 109 kts | 96° |
| 2026-05-05 19:28 | 50.72337 | -2.54636 | 2480 ft | 107 kts | 96° |
| 2026-05-05 19:28 | 50.72155 | -2.53490 | 2480 ft | 108 kts | 96° |
| 2026-05-05 19:29 | 50.71976 | -2.52357 | 2478 ft | 106 kts | 96° |
| 2026-05-05 19:29 | 50.71797 | -2.51234 | 2481 ft | 106 kts | 96° |
| 2026-05-05 19:29 | 50.71619 | -2.50106 | 2478 ft | 106 kts | 96° |
| 2026-05-05 19:29 | 50.71441 | -2.48964 | 2482 ft | 108 kts | 97° |
| 2026-05-05 19:30 | 50.71270 | -2.47772 | 2493 ft | 114 kts | 96° |
| 2026-05-05 19:30 | 50.71085 | -2.46544 | 2495 ft | 116 kts | 96° |
| 2026-05-05 19:30 | 50.70906 | -2.45284 | 2496 ft | 119 kts | 96° |
| 2026-05-05 19:30 | 50.70719 | -2.44003 | 2488 ft | 120 kts | 97° |
| 2026-05-05 19:31 | 50.70537 | -2.42725 | 2492 ft | 119 kts | 96° |
| 2026-05-05 19:31 | 50.70348 | -2.41454 | 2423 ft | 123 kts | 97° |
| 2026-05-05 19:31 | 50.70152 | -2.40149 | 2357 ft | 121 kts | 96° |
| 2026-05-05 19:31 | 50.69960 | -2.38888 | 2274 ft | 121 kts | 96° |
| 2026-05-05 19:32 | 50.69769 | -2.37617 | 2268 ft | 116 kts | 96° |
| 2026-05-05 19:32 | 50.69584 | -2.36390 | 2269 ft | 114 kts | 96° |
| 2026-05-05 19:32 | 50.69395 | -2.35186 | 2276 ft | 113 kts | 96° |
| 2026-05-05 19:32 | 50.69206 | -2.33971 | 2271 ft | 114 kts | 96° |
| 2026-05-05 19:33 | 50.69019 | -2.32776 | 2270 ft | 112 kts | 96° |
| 2026-05-05 19:33 | 50.68834 | -2.31634 | 2270 ft | 104 kts | 96° |
| 2026-05-05 19:33 | 50.68651 | -2.30541 | 2264 ft | 105 kts | 97° |
| 2026-05-05 19:33 | 50.68501 | -2.29409 | 2271 ft | 107 kts | 91° |
| 2026-05-05 19:34 | 50.68390 | -2.28217 | 2273 ft | 111 kts | 92° |
| 2026-05-05 19:34 | 50.68273 | -2.27008 | 2279 ft | 112 kts | 91° |
| 2026-05-05 19:34 | 50.68158 | -2.25798 | 2244 ft | 111 kts | 91° |
| 2026-05-05 19:35 | 50.67925 | -2.23333 | 2053 ft | 113 kts | 91° |
| 2026-05-05 19:35 | 50.67803 | -2.22116 | 2038 ft | 111 kts | 91° |
| 2026-05-05 19:35 | 50.67685 | -2.20920 | 2019 ft | 111 kts | 91° |
| 2026-05-05 19:35 | 50.67562 | -2.19700 | 1958 ft | 112 kts | 91° |
| 2026-05-05 19:36 | 50.67438 | -2.18505 | 1934 ft | 113 kts | 91° |
| 2026-05-05 19:36 | 50.67314 | -2.17303 | 1929 ft | 109 kts | 91° |
| 2026-05-05 19:36 | 50.67187 | -2.16136 | 1925 ft | 108 kts | 92° |
| 2026-05-05 19:36 | 50.67062 | -2.14961 | 1931 ft | 111 kts | 91° |
| 2026-05-05 19:37 | 50.66940 | -2.13748 | 1935 ft | 114 kts | 91° |
| 2026-05-05 19:37 | 50.66812 | -2.12508 | 1937 ft | 115 kts | 91° |
| 2026-05-05 19:37 | 50.66685 | -2.11262 | 1942 ft | 115 kts | 91° |
| 2026-05-05 19:37 | 50.66554 | -2.10002 | 1936 ft | 117 kts | 91° |
| 2026-05-05 19:38 | 50.66431 | -2.08730 | 1934 ft | 118 kts | 91° |
| 2026-05-05 19:38 | 50.66304 | -2.07464 | 1942 ft | 117 kts | 91° |
| 2026-05-05 19:38 | 50.66179 | -2.06194 | 1934 ft | 117 kts | 91° |
| 2026-05-05 19:38 | 50.66045 | -2.04928 | 1936 ft | 117 kts | 91° |
| 2026-05-05 19:39 | 50.65907 | -2.03675 | 1934 ft | 115 kts | 91° |
| 2026-05-05 19:39 | 50.65857 | -2.02438 | 1927 ft | 112 kts | 78° |
| 2026-05-05 19:39 | 50.65916 | -2.01213 | 1930 ft | 113 kts | 79° |
| 2026-05-05 19:39 | 50.66011 | -1.99995 | 1926 ft | 111 kts | 71° |
| 2026-05-05 19:40 | 50.66189 | -1.98813 | 1926 ft | 109 kts | 69° |
| 2026-05-05 19:40 | 50.66384 | -1.97700 | 1920 ft | 102 kts | 63° |
| 2026-05-05 19:40 | 50.66640 | -1.96659 | 1915 ft | 103 kts | 63° |
| 2026-05-05 19:40 | 50.66899 | -1.95602 | 1917 ft | 104 kts | 63° |
| 2026-05-05 19:41 | 50.67241 | -1.94614 | 1914 ft | 102 kts | 53° |
| 2026-05-05 19:41 | 50.67679 | -1.93749 | 1911 ft | 100 kts | 35° |
| 2026-05-05 19:41 | 50.68332 | -1.93456 | 1913 ft | 99 kts | 2° |
| 2026-05-05 19:41 | 50.69017 | -1.93466 | 1913 ft | 98 kts | 355° |
| 2026-05-05 19:42 | 50.69666 | -1.93794 | 1920 ft | 98 kts | 348° |
| 2026-05-05 19:42 | 50.70325 | -1.94035 | 1914 ft | 97 kts | 349° |
| 2026-05-05 19:42 | 50.70981 | -1.94296 | 1917 ft | 98 kts | 351° |
| 2026-05-05 19:42 | 50.71643 | -1.94560 | 1921 ft | 98 kts | 349° |
| 2026-05-05 19:43 | 50.72291 | -1.94822 | 1916 ft | 95 kts | 349° |
| 2026-05-05 19:43 | 50.72925 | -1.95088 | 1918 ft | 93 kts | 349° |
| 2026-05-05 19:43 | 50.73517 | -1.95361 | 1913 ft | 86 kts | 348° |
| 2026-05-05 19:43 | 50.74075 | -1.95628 | 1918 ft | 82 kts | 348° |
| 2026-05-05 19:44 | 50.74608 | -1.95910 | 1912 ft | 74 kts | 346° |
| 2026-05-05 19:44 | 50.75042 | -1.96130 | 1910 ft | 59 kts | 352° |
| 2026-05-05 19:44 | 50.75418 | -1.96250 | 1912 ft | 52 kts | 358° |
| 2026-05-05 19:44 | 50.75678 | -1.95929 | 1897 ft | 52 kts | 52° |
| 2026-05-05 19:45 | 50.75904 | -1.95478 | 1824 ft | 56 kts | 46° |
| 2026-05-05 19:45 | 50.75944 | -1.94767 | 1715 ft | 67 kts | 85° |
| 2026-05-05 19:45 | 50.76014 | -1.94104 | 1658 ft | 60 kts | 58° |
| 2026-05-05 19:45 | 50.76163 | -1.93472 | 1571 ft | 61 kts | 59° |
| 2026-05-05 19:46 | 50.76329 | -1.92870 | 1490 ft | 60 kts | 64° |
| 2026-05-05 19:46 | 50.76465 | -1.92240 | 1353 ft | 61 kts | 59° |
| 2026-05-05 19:46 | 50.76626 | -1.91618 | 1153 ft | 62 kts | 60° |
| 2026-05-05 19:46 | 50.76785 | -1.90969 | 960 ft | 63 kts | 66° |
| 2026-05-05 19:47 | 50.76919 | -1.90295 | 771 ft | 64 kts | 68° |
| 2026-05-05 19:47 | 50.77070 | -1.89655 | 602 ft | 59 kts | 65° |
| 2026-05-05 19:47 | 50.77186 | -1.89067 | 516 ft | 57 kts | 69° |
| 2026-05-05 19:47 | 50.77321 | -1.88453 | 460 ft | 60 kts | 67° |
| 2026-05-05 19:48 | 50.77428 | -1.87828 | 390 ft | 59 kts | 70° |
| 2026-05-05 19:48 | 50.77544 | -1.87198 | 333 ft | 62 kts | 76° |
| 2026-05-05 19:48 | 50.77640 | -1.86534 | 261 ft | 62 kts | 75° |
| 2026-05-05 19:48 | 50.77715 | -1.85988 | 195 ft | 63 kts | 72° |
| 2026-05-05 19:49 | 50.77828 | -1.85372 | 110 ft | 60 kts | 72° |
| 2026-05-05 19:49 | 50.77895 | -1.84938 | 98 ft | 58 kts | 71° |
| 2026-05-05 19:49 | 50.78014 | -1.84274 | 54 ft | 45 kts | 73° |
| 2026-05-05 19:49 | 50.78055 | -1.83872 | 54 ft | 6 kts | 166° |
| 2026-05-05 19:50 | 50.77984 | -1.83864 | 53 ft | 19 kts | 167° |
| 2026-05-05 19:50 | 50.77903 | -1.83830 | 53 ft | 0 kts | 168° |
| 2026-05-05 19:50 | 50.77902 | -1.83830 | 53 ft | 0 kts | 172° |
| 2026-05-05 19:50 | 50.77850 | -1.83809 | 53 ft | 26 kts | 166° |
| 2026-05-05 19:51 | 50.77636 | -1.83713 | 54 ft | 25 kts | 153° |
| 2026-05-05 19:51 | 50.77606 | -1.83503 | 53 ft | 21 kts | 27° |
| 2026-05-05 19:51 | 50.77732 | -1.83463 | 53 ft | 20 kts | 12° |
| 2026-05-05 19:51 | 50.77867 | -1.83471 | 51 ft | 15 kts | 6° |
| 2026-05-05 19:52 | 50.77923 | -1.83425 | 51 ft | 8 kts | 88° |
| 2026-05-05 19:52 | 50.77925 | -1.83381 | 50 ft | 0 kts | 86° |